createdAt,value
2023-04-21T00:01:13.802Z,12.63
2023-04-21T00:03:41.894Z,12.70
2023-04-21T00:06:09.431Z,14.82
2023-04-21T00:08:45.261Z,13.40
2023-04-21T00:11:11.737Z,14.53
2023-04-21T00:13:38.862Z,16.42
2023-04-21T00:16:05.628Z,13.48
2023-04-21T00:18:32.260Z,12.38
2023-04-21T00:20:58.866Z,14.65
2023-04-21T00:23:25.346Z,14.97
2023-04-21T00:25:52.288Z,14.52
2023-04-21T00:28:18.790Z,16.73
2023-04-21T00:30:45.352Z,14.65
2023-04-21T00:33:11.871Z,17.60
2023-04-21T00:35:38.223Z,19.63
2023-04-21T00:38:04.590Z,17.40
2023-04-21T00:40:31.092Z,17.15
2023-04-21T00:42:57.625Z,18.88
2023-04-21T00:45:23.952Z,16.60
2023-04-21T00:47:50.604Z,17.23
2023-04-21T00:50:17.071Z,19.95
2023-04-21T00:52:44.453Z,19.98
2023-04-21T00:55:11.353Z,18.88
2023-04-21T00:57:37.960Z,18.70
2023-04-21T01:00:06.185Z,22.87
2023-04-21T01:02:35.407Z,22.30
2023-04-21T01:05:02.093Z,22.35
2023-04-21T01:07:28.458Z,24.92
2023-04-21T01:09:54.883Z,19.70
2023-04-21T01:12:21.403Z,23.63
2023-04-21T01:14:47.830Z,20.23
2023-04-21T01:17:14.173Z,20.38
2023-04-21T01:19:42.984Z,20.88
2023-04-21T01:22:11.224Z,21.08
2023-04-21T01:24:45.367Z,22.10
2023-04-21T01:27:19.932Z,21.38
2023-04-21T01:29:48.878Z,22.60
2023-04-21T01:32:18.509Z,21.80
2023-04-21T01:34:45.427Z,20.88
2023-04-21T01:37:14.287Z,22.87
2023-04-21T01:39:42.731Z,22.33
2023-04-21T01:42:09.372Z,21.48
2023-04-21T01:44:36.327Z,24.38
2023-04-21T01:47:02.898Z,24.05
2023-04-21T01:49:29.406Z,24.07
2023-04-21T01:51:55.789Z,22.23
2023-04-21T01:54:22.140Z,22.42
2023-04-21T01:56:48.707Z,27.27
2023-04-21T01:59:15.458Z,24.27
2023-04-21T02:01:42.102Z,24.27
2023-04-21T02:04:08.782Z,22.35
2023-04-21T02:06:35.933Z,22.75
2023-04-21T02:09:02.426Z,23.92
2023-04-21T02:11:29.184Z,23.40
2023-04-21T02:13:56.019Z,27.10
2023-04-21T02:16:26.569Z,24.33
2023-04-21T02:18:54.183Z,24.33
2023-04-21T02:21:24.094Z,24.35
2023-04-21T02:23:51.194Z,23.58
2023-04-21T02:26:18.730Z,22.13
2023-04-21T02:28:45.669Z,21.98
2023-04-21T02:31:12.203Z,26.08
2023-04-21T02:33:38.630Z,25.65
2023-04-21T02:36:05.629Z,24.35
2023-04-21T02:38:32.164Z,23.90
2023-04-21T02:40:58.633Z,27.60
2023-04-21T02:43:25.012Z,24.55
2023-04-21T02:45:52.665Z,23.15
2023-04-21T02:48:22.929Z,24.95
2023-04-21T02:50:50.734Z,23.30
2023-04-21T02:53:17.218Z,22.77
2023-04-21T02:55:43.966Z,26.65
2023-04-21T02:58:10.891Z,24.88
2023-04-21T03:00:37.467Z,24.00
2023-04-21T03:03:04.287Z,22.63
2023-04-21T03:05:30.955Z,23.90
2023-04-21T03:07:57.289Z,22.60
2023-04-21T03:10:23.849Z,23.40
2023-04-21T03:12:50.492Z,25.73
2023-04-21T03:15:19.384Z,27.37
2023-04-21T03:17:45.830Z,25.88
2023-04-21T03:20:12.761Z,23.13
2023-04-21T03:22:39.633Z,25.60
2023-04-21T03:25:07.382Z,24.33
2023-04-21T03:27:34.623Z,24.43
2023-04-21T03:30:01.036Z,26.08
2023-04-21T03:32:27.485Z,23.73
2023-04-21T03:34:54.177Z,25.30
2023-04-21T03:37:20.621Z,26.05
2023-04-21T03:39:47.039Z,23.47
2023-04-21T03:42:13.389Z,22.98
2023-04-21T03:44:39.906Z,24.80
2023-04-21T03:47:06.306Z,23.92
2023-04-21T03:49:35.824Z,22.05
2023-04-21T03:52:02.538Z,23.07
2023-04-21T03:54:29.086Z,23.58
2023-04-21T03:56:55.681Z,23.70
2023-04-21T03:59:22.297Z,26.02
2023-04-21T04:01:48.863Z,20.98
2023-04-21T04:04:15.780Z,22.50
2023-04-21T04:06:42.866Z,21.13
2023-04-21T04:09:09.370Z,25.67
2023-04-21T04:11:36.180Z,21.77
2023-04-21T04:14:02.974Z,22.55
2023-04-21T04:16:30.015Z,22.67
2023-04-21T04:18:56.766Z,21.85
2023-04-21T04:21:23.359Z,24.33
2023-04-21T04:23:51.711Z,24.70
2023-04-21T04:26:18.856Z,24.80
2023-04-21T04:28:45.981Z,21.63
2023-04-21T04:31:13.720Z,25.45
2023-04-21T04:33:44.000Z,24.83
2023-04-21T04:36:12.018Z,23.05
2023-04-21T04:38:38.673Z,26.00
2023-04-21T04:41:06.336Z,23.73
2023-04-21T04:43:33.523Z,22.50
2023-04-21T04:46:00.378Z,22.70
2023-04-21T04:48:27.000Z,25.17
2023-04-21T04:50:53.446Z,25.52
2023-04-21T04:53:19.961Z,22.77
2023-04-21T04:55:47.162Z,21.33
2023-04-21T04:58:13.780Z,23.00
2023-04-21T05:00:40.584Z,23.60
2023-04-21T05:03:07.135Z,23.83
2023-04-21T05:05:33.675Z,25.30
2023-04-21T05:08:00.127Z,25.27
2023-04-21T05:10:26.605Z,25.75
2023-04-21T05:12:53.230Z,28.58
2023-04-21T05:15:19.673Z,23.67
2023-04-21T05:17:46.288Z,27.47
2023-04-21T05:20:12.989Z,26.45
2023-04-21T05:22:40.296Z,24.83
2023-04-21T05:25:07.431Z,26.48
2023-04-21T05:27:34.127Z,25.85
2023-04-21T05:30:00.967Z,26.63
2023-04-21T05:32:27.463Z,25.60
2023-04-21T05:34:54.107Z,30.38
2023-04-21T05:37:20.768Z,25.55
2023-04-21T05:39:47.122Z,32.75
2023-04-21T05:42:13.513Z,32.80
2023-04-21T05:44:39.955Z,24.90
2023-04-21T05:47:07.524Z,29.73
2023-04-21T05:49:33.963Z,27.80
2023-04-21T05:52:00.489Z,28.02
2023-04-21T05:54:26.874Z,31.73
2023-04-21T05:56:53.237Z,25.58
2023-04-21T05:59:19.700Z,27.88
2023-04-21T06:01:46.085Z,28.88
2023-04-21T06:04:12.752Z,28.92
2023-04-21T06:06:39.555Z,26.93
2023-04-21T06:09:06.536Z,27.00
2023-04-21T06:11:33.567Z,27.13
2023-04-21T06:14:01.076Z,28.00
2023-04-21T06:16:28.076Z,28.45
2023-04-21T06:18:54.657Z,27.03
2023-04-21T06:21:21.056Z,32.47
2023-04-21T06:23:47.696Z,28.33
2023-04-21T06:26:14.147Z,31.02
2023-04-21T06:28:40.857Z,27.70
2023-04-21T06:31:09.018Z,30.70
2023-04-21T06:33:36.268Z,28.38
2023-04-21T06:36:02.816Z,27.33
2023-04-21T06:38:29.362Z,26.70
2023-04-21T06:40:55.895Z,26.63
2023-04-21T06:43:22.362Z,26.33
2023-04-21T06:45:48.834Z,29.30
2023-04-21T06:48:15.422Z,30.90
2023-04-21T06:50:44.295Z,29.20
2023-04-21T06:53:11.663Z,29.77
2023-04-21T06:55:38.199Z,28.23
2023-04-21T06:58:04.655Z,30.70
2023-04-21T07:00:31.245Z,30.38
2023-04-21T07:02:57.703Z,28.88
2023-04-21T07:05:24.409Z,29.90
2023-04-21T07:07:51.014Z,30.47
2023-04-21T07:10:19.831Z,30.40
2023-04-21T07:12:46.558Z,28.05
2023-04-21T07:15:13.295Z,26.10
2023-04-21T07:17:39.731Z,27.05
2023-04-21T07:20:07.141Z,30.33
2023-04-21T07:22:34.679Z,27.02
2023-04-21T07:25:01.122Z,26.38
2023-04-21T07:27:27.592Z,29.45
2023-04-21T07:29:53.988Z,26.92
2023-04-21T07:32:20.637Z,29.67
2023-04-21T07:34:48.279Z,28.08
2023-04-21T07:37:14.948Z,28.20
2023-04-21T07:39:41.384Z,29.73
2023-04-21T07:42:08.229Z,27.95
2023-04-21T07:44:35.412Z,27.17
2023-04-21T07:47:01.900Z,27.23
2023-04-21T07:49:28.398Z,28.45
2023-04-21T07:51:54.861Z,30.00
2023-04-21T07:54:21.308Z,29.20
2023-04-21T07:56:47.727Z,28.20
2023-04-21T07:59:14.136Z,29.52
2023-04-21T08:01:40.545Z,27.00
2023-04-21T08:04:07.183Z,26.08
2023-04-21T08:06:33.939Z,24.63
2023-04-21T08:09:00.618Z,27.33
2023-04-21T08:11:28.525Z,27.45
2023-04-21T08:13:54.958Z,27.58
2023-04-21T08:16:21.398Z,29.70
2023-04-21T08:18:47.927Z,26.77
2023-04-21T08:21:14.906Z,29.77
2023-04-21T08:23:41.477Z,27.65
2023-04-21T08:26:09.242Z,28.27
2023-04-21T08:28:35.823Z,30.00
2023-04-21T08:31:02.407Z,26.17
2023-04-21T08:33:28.967Z,25.37
2023-04-21T08:36:03.787Z,27.90
2023-04-21T08:38:32.273Z,26.65
2023-04-21T08:40:59.927Z,29.00
2023-04-21T08:43:28.799Z,26.48
2023-04-21T08:45:56.111Z,27.60
2023-04-21T08:48:23.873Z,26.38
2023-04-21T08:50:52.003Z,26.88
2023-04-21T08:53:18.453Z,26.27
2023-04-21T08:55:49.236Z,29.80
2023-04-21T08:58:17.718Z,25.27
2023-04-21T09:00:44.238Z,28.15
2023-04-21T09:03:23.358Z,26.92
2023-04-21T09:06:02.788Z,24.77
2023-04-21T09:08:30.411Z,24.55
2023-04-21T09:10:58.050Z,25.80
2023-04-21T09:13:35.431Z,25.02
2023-04-21T09:16:14.823Z,24.45
2023-04-21T09:18:44.154Z,26.60
2023-04-21T09:21:13.032Z,27.25
2023-04-21T09:23:41.690Z,26.67
2023-04-21T09:26:09.665Z,23.27
2023-04-21T09:28:36.588Z,23.48
2023-04-21T09:31:03.187Z,23.75
2023-04-21T09:33:42.651Z,25.23
2023-04-21T09:36:21.041Z,23.53
2023-04-21T09:38:50.239Z,21.10
2023-04-21T09:41:18.044Z,22.85
2023-04-21T09:43:44.495Z,23.83
2023-04-21T09:46:12.590Z,23.80
2023-04-21T09:48:44.297Z,22.77
2023-04-21T09:51:25.584Z,25.42
2023-04-21T09:54:00.504Z,22.35
2023-04-21T09:56:31.548Z,21.02
2023-04-21T09:59:01.828Z,20.38
2023-04-21T10:01:29.643Z,22.20
2023-04-21T10:03:56.481Z,21.02
2023-04-21T10:06:23.159Z,23.05
2023-04-21T10:08:51.281Z,24.92
2023-04-21T10:11:18.779Z,23.38
2023-04-21T10:13:46.187Z,22.53
2023-04-21T10:16:12.767Z,21.60
2023-04-21T10:18:44.167Z,24.35
2023-04-21T10:21:13.431Z,20.95
2023-04-21T10:23:48.419Z,22.25
2023-04-21T10:26:19.207Z,22.87
2023-04-21T10:28:57.368Z,22.25
2023-04-21T10:31:29.853Z,19.42
2023-04-21T10:34:08.542Z,23.70
2023-04-21T10:36:47.075Z,22.38
2023-04-21T10:39:36.107Z,24.57
2023-04-21T10:42:20.818Z,19.67
2023-04-21T10:44:56.278Z,21.90
2023-04-21T10:47:30.397Z,22.83
2023-04-21T10:49:58.235Z,21.98
2023-04-21T10:52:34.187Z,21.30
2023-04-21T10:55:07.031Z,21.70
2023-04-21T10:57:35.264Z,25.77
2023-04-21T11:00:05.815Z,23.30
2023-04-21T11:02:34.606Z,24.88
2023-04-21T11:05:03.538Z,24.40
2023-04-21T11:07:29.941Z,25.13
2023-04-21T11:10:02.389Z,22.83
2023-04-21T11:12:33.714Z,22.35
2023-04-21T11:15:04.075Z,23.75
2023-04-21T11:17:31.571Z,20.80
2023-04-21T11:19:58.025Z,22.40
2023-04-21T11:22:26.414Z,19.33
2023-04-21T11:24:58.308Z,23.27
2023-04-21T11:27:28.351Z,20.42
2023-04-21T11:29:54.842Z,22.37
2023-04-21T11:32:21.388Z,23.33
2023-04-21T11:34:48.066Z,22.75
2023-04-21T11:37:17.477Z,21.98
2023-04-21T11:39:44.483Z,21.67
2023-04-21T11:42:11.930Z,25.13
2023-04-21T11:44:43.125Z,22.42
2023-04-21T11:47:13.716Z,19.20
2023-04-21T11:49:49.021Z,22.58
2023-04-21T11:52:28.744Z,18.42
2023-04-21T11:55:05.797Z,21.50
2023-04-21T11:57:33.550Z,23.17
2023-04-21T12:00:02.242Z,20.85
2023-04-21T12:02:31.216Z,19.90
2023-04-21T12:05:11.923Z,18.80
2023-04-21T12:07:41.653Z,19.67
2023-04-21T12:10:13.401Z,20.73
2023-04-21T12:12:42.336Z,20.00
2023-04-21T12:15:10.624Z,19.75
2023-04-21T12:17:45.331Z,18.88
2023-04-21T12:20:13.108Z,17.60
2023-04-21T12:22:39.551Z,18.95
2023-04-21T12:25:06.323Z,18.63
2023-04-21T12:27:32.977Z,18.83
2023-04-21T12:29:59.419Z,18.50
2023-04-21T12:32:26.247Z,17.83
2023-04-21T12:34:52.779Z,19.27
2023-04-21T12:37:19.419Z,17.73
2023-04-21T12:39:45.936Z,18.35
2023-04-21T12:42:12.477Z,17.40
2023-04-21T12:44:40.331Z,18.60
2023-04-21T12:47:07.096Z,19.73
2023-04-21T12:49:33.591Z,18.35
2023-04-21T12:52:00.034Z,20.10
2023-04-21T12:54:26.604Z,20.15
2023-04-21T12:56:53.075Z,18.83
2023-04-21T12:59:19.496Z,20.38
2023-04-21T13:01:46.018Z,19.42
2023-04-21T13:04:13.050Z,23.40
2023-04-21T13:06:40.073Z,20.65
2023-04-21T13:09:06.979Z,20.27
2023-04-21T13:11:33.767Z,20.33
2023-04-21T13:14:00.308Z,22.77
2023-04-21T13:16:28.596Z,21.20
2023-04-21T13:18:56.487Z,21.25
2023-04-21T13:21:22.985Z,20.90
2023-04-21T13:23:49.783Z,20.23
2023-04-21T13:26:16.982Z,21.52
2023-04-21T13:28:43.394Z,21.73
2023-04-21T13:31:09.934Z,25.38
2023-04-21T13:33:36.545Z,22.23
2023-04-21T13:36:04.001Z,21.38
2023-04-21T13:38:30.960Z,24.08
2023-04-21T13:40:57.488Z,22.38
2023-04-21T13:43:24.173Z,23.05
2023-04-21T13:45:52.166Z,21.20
2023-04-21T13:48:21.082Z,21.95
2023-04-21T13:50:47.777Z,24.27
2023-04-21T13:53:16.589Z,21.98
2023-04-21T13:55:46.652Z,18.02
2023-04-21T13:58:15.709Z,20.60
2023-04-21T14:00:42.215Z,19.70
2023-04-21T14:03:09.458Z,18.45
2023-04-21T14:05:36.339Z,20.05
2023-04-21T14:08:03.127Z,21.30
2023-04-21T14:10:29.456Z,18.33
2023-04-21T14:12:55.882Z,17.23
2023-04-21T14:15:22.550Z,20.25
2023-04-21T14:17:49.141Z,20.48
2023-04-21T14:20:15.713Z,19.05
2023-04-21T14:22:42.120Z,18.37
2023-04-21T14:25:08.736Z,18.15
2023-04-21T14:27:36.351Z,17.20
2023-04-21T14:30:03.089Z,17.80
2023-04-21T14:32:29.832Z,16.00
2023-04-21T14:34:58.679Z,15.97
2023-04-21T14:37:26.122Z,13.23
2023-04-21T14:39:52.609Z,15.20
2023-04-21T14:42:19.184Z,13.82
2023-04-21T14:44:45.740Z,14.88
2023-04-21T14:47:13.349Z,16.77
2023-04-21T14:49:39.858Z,16.55
2023-04-21T14:52:07.594Z,16.08
2023-04-21T14:54:34.010Z,16.63
2023-04-21T14:57:17.670Z,16.40
2023-04-21T14:59:46.960Z,15.90
2023-04-21T15:02:13.844Z,15.05
2023-04-21T15:04:40.825Z,17.90
2023-04-21T15:07:07.409Z,15.60
2023-04-21T15:09:35.647Z,17.15
2023-04-21T15:12:02.496Z,17.67
2023-04-21T15:14:28.968Z,17.60
2023-04-21T15:16:55.477Z,17.35
2023-04-21T15:19:23.995Z,17.20
2023-04-21T15:21:51.873Z,17.90
2023-04-21T15:24:18.402Z,18.40
2023-04-21T15:26:44.956Z,17.35
2023-04-21T15:29:11.552Z,20.13
2023-04-21T15:31:38.115Z,21.40
2023-04-21T15:34:04.648Z,18.38
2023-04-21T15:36:32.154Z,18.87
2023-04-21T15:38:58.664Z,16.77
2023-04-21T15:41:26.351Z,17.10
2023-04-21T15:43:53.060Z,17.95
2023-04-21T15:46:19.549Z,19.45
2023-04-21T15:48:46.127Z,19.00
2023-04-21T15:51:13.239Z,21.02
2023-04-21T15:53:47.251Z,18.42
2023-04-21T15:56:17.131Z,17.35
2023-04-21T15:58:43.789Z,19.98
2023-04-21T16:01:10.359Z,19.03
2023-04-21T16:03:37.543Z,18.75
2023-04-21T16:06:04.613Z,16.98
2023-04-21T16:08:33.136Z,15.27
2023-04-21T16:11:00.313Z,19.98
2023-04-21T16:13:26.983Z,16.20
2023-04-21T16:15:53.555Z,16.75
2023-04-21T16:18:20.186Z,19.25
2023-04-21T16:20:46.778Z,17.42
2023-04-21T16:23:13.742Z,18.55
2023-04-21T16:25:40.446Z,17.93
2023-04-21T16:28:07.517Z,16.63
2023-04-21T16:30:35.166Z,18.23
2023-04-21T16:33:02.370Z,17.85
2023-04-21T16:35:28.792Z,21.63
2023-04-21T16:37:55.982Z,20.00
2023-04-21T16:40:22.513Z,16.10
2023-04-21T16:42:49.061Z,16.98
2023-04-21T16:45:15.724Z,15.52
2023-04-21T16:47:42.661Z,17.13
2023-04-21T16:50:09.729Z,19.57
2023-04-21T16:52:36.344Z,19.13
2023-04-21T16:55:02.816Z,16.63
2023-04-21T16:57:31.176Z,18.08
2023-04-21T17:00:00.620Z,17.02
2023-04-21T17:02:27.418Z,14.93
2023-04-21T17:04:53.938Z,19.00
2023-04-21T17:07:20.404Z,16.23
2023-04-21T17:09:46.826Z,16.02
2023-04-21T17:12:13.376Z,18.02
2023-04-21T17:14:40.533Z,19.57
2023-04-21T17:17:07.204Z,17.00
2023-04-21T17:19:33.992Z,19.83
2023-04-21T17:22:00.533Z,17.90
2023-04-21T17:24:29.557Z,16.88
2023-04-21T17:26:59.716Z,17.70
2023-04-21T17:29:26.856Z,18.70
2023-04-21T17:31:53.408Z,16.15
2023-04-21T17:34:19.878Z,18.45
2023-04-21T17:36:46.269Z,17.88
2023-04-21T17:39:12.674Z,17.93
2023-04-21T17:41:39.067Z,18.10
2023-04-21T17:44:05.594Z,20.15
2023-04-21T17:46:32.062Z,16.25
2023-04-21T17:48:58.732Z,19.05
2023-04-21T17:51:25.182Z,16.33
2023-04-21T17:53:51.581Z,17.20
2023-04-21T17:56:18.808Z,18.67
2023-04-21T17:58:45.669Z,16.13
2023-04-21T18:01:12.294Z,18.27
2023-04-21T18:03:41.329Z,18.90
2023-04-21T18:06:10.670Z,16.98
2023-04-21T18:08:37.865Z,19.13
2023-04-21T18:11:04.312Z,19.00
2023-04-21T18:13:30.804Z,19.70
2023-04-21T18:15:57.839Z,12.00
2023-04-21T18:18:24.613Z,9.88
2023-04-21T18:20:51.075Z,10.88
2023-04-21T18:23:17.592Z,8.20
2023-04-21T18:25:44.009Z,5.50
2023-04-21T18:28:13.405Z,5.63
2023-04-21T18:30:40.411Z,6.25
2023-04-21T18:33:07.108Z,5.70
2023-04-21T18:35:33.948Z,6.30
2023-04-21T18:38:00.853Z,8.02
2023-04-21T18:40:27.548Z,6.17
2023-04-21T18:42:54.107Z,10.00
2023-04-21T18:45:20.550Z,9.52
2023-04-21T18:47:47.137Z,7.03
2023-04-21T18:50:13.751Z,6.72
2023-04-21T18:52:40.488Z,8.97
2023-04-21T18:55:07.199Z,8.55
2023-04-21T18:57:33.610Z,9.98
2023-04-21T19:00:00.291Z,8.43
2023-04-21T19:02:28.559Z,7.43
2023-04-21T19:04:55.333Z,6.60
2023-04-21T19:07:22.016Z,6.57
2023-04-21T19:09:48.524Z,8.68
2023-04-21T19:12:15.964Z,10.63
2023-04-21T19:14:47.003Z,9.25
2023-04-21T19:17:14.461Z,10.33
2023-04-21T19:19:41.169Z,9.43
2023-04-21T19:22:07.677Z,9.05
2023-04-21T19:24:34.348Z,7.75
2023-04-21T19:27:02.310Z,9.18
2023-04-21T19:29:29.062Z,10.40
2023-04-21T19:31:55.511Z,10.80
2023-04-21T19:34:22.193Z,12.57
2023-04-21T19:36:49.233Z,11.25
2023-04-21T19:39:15.655Z,13.07
2023-04-21T19:41:42.038Z,10.10
2023-04-21T19:44:08.531Z,11.52
2023-04-21T19:46:35.136Z,8.93
2023-04-21T19:49:01.674Z,11.63
2023-04-21T19:51:28.142Z,9.57
2023-04-21T19:54:09.941Z,12.40
2023-04-21T19:56:38.150Z,10.32
2023-04-21T19:59:05.488Z,10.60
2023-04-21T20:01:32.749Z,11.10
2023-04-21T20:03:59.991Z,9.40
2023-04-21T20:06:27.198Z,8.93
2023-04-21T20:08:54.010Z,9.77
2023-04-21T20:11:21.035Z,9.00
2023-04-21T20:13:47.804Z,10.77
2023-04-21T20:16:14.424Z,11.23
2023-04-21T20:18:40.955Z,13.37
2023-04-21T20:21:07.436Z,8.57
2023-04-21T20:23:33.939Z,11.23
2023-04-21T20:26:01.096Z,13.85
2023-04-21T20:28:27.623Z,10.05
2023-04-21T20:30:56.117Z,11.73
2023-04-21T20:33:22.698Z,11.90
2023-04-21T20:35:49.655Z,12.45
2023-04-21T20:38:16.361Z,10.07
2023-04-21T20:40:43.075Z,10.48
2023-04-21T20:43:10.369Z,10.87
2023-04-21T20:45:37.751Z,12.27
2023-04-21T20:48:04.765Z,11.73
2023-04-21T20:50:31.321Z,13.15
2023-04-21T20:52:57.998Z,11.60
2023-04-21T20:55:24.837Z,12.43
2023-04-21T20:57:51.333Z,13.05
2023-04-21T21:00:17.875Z,11.43
2023-04-21T21:02:44.438Z,11.70
2023-04-21T21:05:11.021Z,7.22
2023-04-21T21:07:37.453Z,7.60
2023-04-21T21:10:04.535Z,7.47
2023-04-21T21:12:30.976Z,9.70
2023-04-21T21:14:57.410Z,8.43
2023-04-21T21:17:23.960Z,8.75
2023-04-21T21:19:50.310Z,10.57
2023-04-21T21:22:16.730Z,8.43
2023-04-21T21:24:43.135Z,8.57
2023-04-21T21:27:09.709Z,8.02
2023-04-21T21:29:36.625Z,7.43
2023-04-21T21:32:03.302Z,8.47
2023-04-21T21:34:29.701Z,6.57
2023-04-21T21:36:56.174Z,7.15
2023-04-21T21:39:22.594Z,6.70
2023-04-21T21:41:49.114Z,8.18
2023-04-21T21:44:15.787Z,7.50
2023-04-21T21:46:42.564Z,6.53
2023-04-21T21:49:08.937Z,5.53
2023-04-21T21:51:35.414Z,5.97
2023-04-21T21:54:01.805Z,6.13
2023-04-21T21:56:28.342Z,7.37
2023-04-21T21:58:54.820Z,6.18
2023-04-21T22:01:21.448Z,6.57
2023-04-21T22:03:48.130Z,5.38
2023-04-21T22:06:16.997Z,5.55
2023-04-21T22:08:43.809Z,5.87
2023-04-21T22:11:10.380Z,6.25
2023-04-21T22:13:36.725Z,6.65
2023-04-21T22:16:03.292Z,5.32
2023-04-21T22:18:30.133Z,6.00
2023-04-21T22:20:58.186Z,6.30
2023-04-21T22:23:25.380Z,6.43
2023-04-21T22:25:51.863Z,5.50
2023-04-21T22:28:18.353Z,7.55
2023-04-21T22:30:44.967Z,6.20
2023-04-21T22:33:11.492Z,5.63
2023-04-21T22:35:37.961Z,5.57
2023-04-21T22:38:04.396Z,6.78
2023-04-21T22:40:30.920Z,5.53
2023-04-21T22:42:57.854Z,6.95
2023-04-21T22:45:24.328Z,8.27
2023-04-21T22:47:50.709Z,7.22
2023-04-21T22:50:17.226Z,6.38
2023-04-21T22:52:43.606Z,6.60
2023-04-21T22:55:10.393Z,8.70
2023-04-21T22:57:40.211Z,7.33
2023-04-21T23:00:10.926Z,10.55
2023-04-21T23:02:37.519Z,9.20
2023-04-21T23:05:04.415Z,9.15
2023-04-21T23:07:31.654Z,7.03
2023-04-21T23:09:58.682Z,6.90
2023-04-21T23:12:25.164Z,8.80
2023-04-21T23:14:52.024Z,7.90
2023-04-21T23:17:18.641Z,7.30
2023-04-21T23:19:45.054Z,6.80
2023-04-21T23:22:11.482Z,8.37
2023-04-21T23:24:38.012Z,8.00
2023-04-21T23:27:04.365Z,8.43
2023-04-21T23:29:31.069Z,10.05
2023-04-21T23:31:57.642Z,8.65
2023-04-21T23:34:24.212Z,8.07
2023-04-21T23:36:50.784Z,8.25
2023-04-21T23:39:18.284Z,7.25
2023-04-21T23:41:44.673Z,9.52
2023-04-21T23:44:11.075Z,7.78
2023-04-21T23:46:37.774Z,9.57
2023-04-21T23:49:04.326Z,8.63
2023-04-21T23:51:31.198Z,8.13
2023-04-21T23:53:57.951Z,7.80
2023-04-21T23:56:24.488Z,8.55
2023-04-21T23:58:51.659Z,9.17
